Albert Maersk — OUOW2 — position and weather

sailwx.info

Track history (hours):
 
Tides and Currents Weather Stations Pressure Air Temp Water Temp Dewpoint Dewpoint Depression Visibility Wind Speed Wind Dir Waves Ship Positions

Albert Maersk

Last reported at 2017-Feb-17 23:32 UTC. Time now 2017-Feb-28 07:35 UTC.
Position N 36°21' E 014°40'.
Warning: this ship's position is 10 days out of date.

MMSI: 220259928.

Date/timePositionNaut miles runAvg speedWind from/ knotsBaromVisibWave heightAir tempDewpointWater temp
2017-Feb-17 23:32N 36°21' E 014°40'2020.3
2017-Feb-17 22:33N 36°27' E 014°16'2120.6
2017-Feb-17 21:33N 36°33' E 013°51'2120.6
2017-Feb-17 20:33N 36°39' E 013°27'2020.3
2017-Feb-17 19:33N 36°45' E 013°03'2020.2
2017-Feb-17 18:33N 36°51' E 012°39'86119.9
2017-Feb-15 23:19N 36°01' W 005°10'1519.3
2017-Feb-15 22:33N 35°57' W 005°27'2320.3
2017-Feb-15 21:25N 35°54' W 005°55'85920.0
2017-Feb-14 02:28N 37°04' W 023°40'1819.6
2017-Feb-14 01:33N 37°05' W 024°02'2019.7
2017-Feb-14 00:34N 37°06' W 024°27'2019.5
2017-Feb-13 23:33N 37°06' W 024°52'1919.5
2017-Feb-13 22:33N 37°06' W 025°16'1919.5
2017-Feb-13 21:33N 37°06' W 025°40'2019.7
2017-Feb-13 20:33N 37°07' W 026°05'2020.1
2017-Feb-13 19:33N 37°07' W 026°30'2020.0
2017-Feb-13 18:33N 37°07' W 026°55'5019.9
2017-Feb-13 16:03N 37°07' W 027°58'1020.2
2017-Feb-13 15:33N 37°07' W 028°10'2020.0
2017-Feb-13 14:33N 37°06' W 028°35'2019.6
2017-Feb-13 13:33N 37°06' W 028°60'2719.7
2017-Feb-13 12:11N 37°05' W 029°34'  
Track history (hours):
 
Tides and Currents Weather Stations Pressure Air Temp Water Temp Dewpoint Dewpoint Depression Visibility Wind Speed Wind Dir Waves Ship Positions

Albert Maersk

Last reported at 2017-Feb-17 23:32 UTC. Time now 2017-Feb-28 07:35 UTC.
Position N 36°21' E 014°40'.
Warning: this ship's position is 10 days out of date.

MMSI: 220259928.

Date/timePositionNaut miles runAvg speedWind from/ knotsBaromVisibWave heightAir tempDewpointWater temp
2017-Feb-17 23:32N 36°21' E 014°40'2020.3
2017-Feb-17 22:33N 36°27' E 014°16'2120.6
2017-Feb-17 21:33N 36°33' E 013°51'2120.6
2017-Feb-17 20:33N 36°39' E 013°27'2020.3
2017-Feb-17 19:33N 36°45' E 013°03'2020.2
2017-Feb-17 18:33N 36°51' E 012°39'86119.9
2017-Feb-15 23:19N 36°01' W 005°10'1519.3
2017-Feb-15 22:33N 35°57' W 005°27'2320.3
2017-Feb-15 21:25N 35°54' W 005°55'85920.0
2017-Feb-14 02:28N 37°04' W 023°40'1819.6
2017-Feb-14 01:33N 37°05' W 024°02'2019.7
2017-Feb-14 00:34N 37°06' W 024°27'2019.5
2017-Feb-13 23:33N 37°06' W 024°52'1919.5
2017-Feb-13 22:33N 37°06' W 025°16'1919.5
2017-Feb-13 21:33N 37°06' W 025°40'2019.7
2017-Feb-13 20:33N 37°07' W 026°05'2020.1
2017-Feb-13 19:33N 37°07' W 026°30'2020.0
2017-Feb-13 18:33N 37°07' W 026°55'5019.9
2017-Feb-13 16:03N 37°07' W 027°58'1020.2
2017-Feb-13 15:33N 37°07' W 028°10'2020.0
2017-Feb-13 14:33N 37°06' W 028°35'2019.6
2017-Feb-13 13:33N 37°06' W 028°60'2719.7
2017-Feb-13 12:11N 37°05' W 029°34'  

Dump ship's entire track history